Nearby METAR Reports

 

KECP - Panama City, Florida, USA
Distance from station: WNW 11mi, 18km
Updated: Sun, 23-Jun-2024 2:53pm CDT
Few Clouds
Few Clouds
 Wind from SW
Wind: SW 12 mph , 19 km/h, Gust: 23 mph , 37 km/h
Temperature: 91°F , 33°C
Heat Index: 104°F , 40°C
Dew Point: 77°F , 25°C
Humidity: 63%
Barometer: 29.93 inHg , 1013.5 hPa
Clouds: Few Clouds
Visibility: 10 miles , 16 km
Cloud details: Few Clouds 5500 ft
2024/06/23 19:53 KECP 231953Z 22010G20KT 10SM FEW055 33/25 A2993 RMK AO1 SLP145 T03330250
KPAM - Tyndall Afb, Florida, USA
Distance from station: S 17mi, 28km
Updated: Sun, 23-Jun-2024 2:55pm CDT
Clear
Clear
 Wind from WSW
Wind: WSW 18 mph , 30 km/h
Temperature: 88°F , 31°C
Heat Index: 100°F , 38°C
Dew Point: 77°F , 25°C
Humidity: 70%
Barometer: 29.94 inHg , 1013.9 hPa
Clouds: Clear
Visibility: 10 miles , 16 km
2024/06/23 19:55 KPAM 231955Z AUTO 24016KT 10SM CLR 31/25 A2994 RMK AO2 SLP142 T03120250 $
 
KTDR - Tyndall Drone, Florida, USA
Distance from station: SSE 19mi, 31km
Updated: Fri, 07-Jun-2024 8:07am CDT
NOT Current

 Wind from W
Wind: W 3 mph , 6 km/h
Visibility: 10 miles , 16 km
2024/06/07 13:07 KTDR 071307Z AUTO 28003KT 10SM M 25/23 A2985 RMK AO2 RAE07 SLP112 $
KBCR - Bonifay Tri-Cty, Florida, USA
Distance from station: N 37mi, 60km
Updated: Sun, 23-Jun-2024 3:12pm CDT
unable to load KBCR data RC=
unable to load KBCR data RC=
 
 
K54J - De Funiak Sprngs, Florida, USA
Distance from station: NW 43mi, 69km
Updated: Sun, 23-Jun-2024 3:12pm CDT
unable to load K54J data RC=
unable to load K54J data RC=
 
KMAI - Marianna, Florida, USA
Distance from station: NE 44mi, 71km
Updated: Sun, 23-Jun-2024 2:53pm CDT
Few Clouds
Few Clouds
 Wind from WSW
Wind: WSW 10 mph , 17 km/h
Temperature: 97°F , 36°C
Dew Point: 66°F , 19°C
Humidity: 37%
Barometer: 29.91 inHg , 1012.9 hPa
Clouds: Few Clouds
Visibility: 10 miles , 16 km
Cloud details: Few Clouds 7000 ft
2024/06/23 19:53 KMAI 231953Z AUTO 25009KT 10SM FEW070 36/19 A2991 RMK AO2 SLP126 T03610189 $